createdAt,value
2024-02-07T00:00:39.425Z,4.97
2024-02-07T00:01:41.048Z,4.38
2024-02-07T00:03:44.602Z,4.90
2024-02-07T00:04:46.467Z,5.63
2024-02-07T00:06:50.197Z,5.00
2024-02-07T00:09:55.509Z,5.53
2024-02-07T00:11:58.901Z,5.40
2024-02-07T00:13:00.478Z,5.72
2024-02-07T00:14:02.101Z,5.68
2024-02-07T00:16:06.301Z,7.30
2024-02-07T00:18:09.905Z,5.18
2024-02-07T00:20:13.599Z,6.40
2024-02-07T00:21:15.277Z,5.82
2024-02-07T00:23:19.097Z,5.03
2024-02-07T00:27:26.125Z,5.90
2024-02-07T00:32:42.352Z,5.50
2024-02-07T00:33:43.981Z,4.93
2024-02-07T00:34:45.644Z,4.18
2024-02-07T00:35:47.331Z,5.22
2024-02-07T00:36:49.194Z,4.43
2024-02-07T00:37:50.789Z,4.17
2024-02-07T00:39:54.388Z,4.32
2024-02-07T00:40:56.020Z,4.63
2024-02-07T00:42:59.511Z,4.57
2024-02-07T00:46:04.804Z,4.88
2024-02-07T00:47:06.591Z,5.07
2024-02-07T00:49:10.243Z,4.90
2024-02-07T00:50:11.889Z,5.30
2024-02-07T00:51:13.484Z,5.60
2024-02-07T00:52:15.067Z,5.70
2024-02-07T00:55:20.368Z,11.27
2024-02-07T00:56:21.940Z,13.52
2024-02-07T00:57:24.032Z,13.73
2024-02-07T00:58:25.717Z,11.37
2024-02-07T00:59:27.297Z,8.95
2024-02-07T01:00:28.860Z,8.75
2024-02-07T01:01:30.567Z,7.05
2024-02-07T01:02:32.208Z,6.05
2024-02-07T01:03:33.806Z,6.30
2024-02-07T01:04:35.463Z,6.18
2024-02-07T01:05:37.147Z,5.63
2024-02-07T01:06:38.794Z,6.97
2024-02-07T01:07:40.422Z,7.43
2024-02-07T01:08:42.126Z,8.90
2024-02-07T01:09:43.736Z,11.15
2024-02-07T01:10:45.333Z,6.78
2024-02-07T01:11:46.929Z,6.72
2024-02-07T01:12:48.516Z,6.22
2024-02-07T01:13:50.270Z,6.80
2024-02-07T01:14:51.974Z,5.75
2024-02-07T01:16:55.452Z,5.35
2024-02-07T01:17:57.043Z,5.45
2024-02-07T01:18:58.694Z,4.83
2024-02-07T01:20:00.394Z,5.50
2024-02-07T01:21:02.066Z,4.88
2024-02-07T01:22:03.738Z,5.13
2024-02-07T01:24:07.137Z,4.97
2024-02-07T01:25:09.051Z,4.90
2024-02-07T01:26:10.655Z,4.18
2024-02-07T01:28:15.014Z,4.03
2024-02-07T01:29:16.680Z,4.80
2024-02-07T01:31:22.483Z,4.38
2024-02-07T01:32:24.122Z,4.40
2024-02-07T01:37:34.580Z,4.80
2024-02-07T01:40:40.203Z,4.65
2024-02-07T01:41:41.780Z,4.55
2024-02-07T01:47:53.471Z,4.90
2024-02-07T01:48:55.232Z,5.00
2024-02-07T01:50:59.088Z,6.22
2024-02-07T01:52:00.663Z,4.72
2024-02-07T01:56:11.987Z,5.72
2024-02-07T01:57:13.640Z,5.45
2024-02-07T01:58:15.534Z,5.40
2024-02-07T02:00:19.297Z,5.83
2024-02-07T02:04:26.550Z,5.70
2024-02-07T02:06:30.246Z,7.53
2024-02-07T02:07:31.963Z,6.93
2024-02-07T02:11:41.102Z,8.27
2024-02-07T02:12:42.967Z,8.32
2024-02-07T02:13:44.958Z,8.43
2024-02-07T02:14:46.758Z,8.38
2024-02-07T02:16:50.294Z,8.93
2024-02-07T02:18:53.848Z,9.43
2024-02-07T02:19:55.699Z,9.88
2024-02-07T02:20:58.731Z,10.33
2024-02-07T02:27:02.596Z,8.10
2024-02-07T02:29:31.358Z,8.88
2024-02-07T02:35:33.409Z,8.35
2024-02-07T02:36:35.019Z,9.18
2024-02-07T02:37:36.731Z,9.25
2024-02-07T02:38:38.228Z,9.48
2024-02-07T02:42:46.418Z,7.80
2024-02-07T02:45:51.682Z,6.68
2024-02-07T02:46:53.329Z,8.95
2024-02-07T02:47:54.977Z,9.07
2024-02-07T02:48:56.610Z,7.68
2024-02-07T02:49:58.246Z,6.95
2024-02-07T02:50:59.770Z,9.00
2024-02-07T02:54:05.305Z,8.77
2024-02-07T02:56:09.072Z,7.60
2024-02-07T02:57:10.630Z,7.93
2024-02-07T02:58:13.627Z,8.75
2024-02-07T02:59:18.521Z,7.32
2024-02-07T03:00:20.369Z,8.15
2024-02-07T03:01:22.043Z,8.52
2024-02-07T03:02:23.624Z,8.32
2024-02-07T03:03:25.109Z,8.40
2024-02-07T03:04:26.754Z,8.75
2024-02-07T03:06:31.519Z,8.77
2024-02-07T03:08:35.110Z,8.02
2024-02-07T03:09:36.630Z,7.90
2024-02-07T03:11:40.810Z,7.90
2024-02-07T03:13:44.046Z,9.18
2024-02-07T03:17:51.251Z,7.40
2024-02-07T03:19:54.683Z,6.68
2024-02-07T03:21:58.040Z,7.75
2024-02-07T03:24:01.297Z,7.60
2024-02-07T03:25:02.857Z,7.47
2024-02-07T03:28:08.137Z,8.38
2024-02-07T03:29:09.705Z,8.05
2024-02-07T03:30:14.267Z,7.07
2024-02-07T03:35:23.522Z,6.18
2024-02-07T03:36:25.068Z,6.93
2024-02-07T03:37:26.546Z,6.70
2024-02-07T03:38:28.697Z,5.88
2024-02-07T03:42:35.819Z,5.90
2024-02-07T03:43:37.449Z,6.57
2024-02-07T03:47:47.330Z,5.63
2024-02-07T03:50:52.760Z,5.65
2024-02-07T03:52:56.272Z,6.00
2024-02-07T03:54:59.596Z,5.57
2024-02-07T03:56:01.180Z,5.82
2024-02-07T03:58:04.765Z,5.80
2024-02-07T04:00:08.531Z,7.30
2024-02-07T04:01:10.110Z,7.70
2024-02-07T04:02:11.780Z,9.43
2024-02-07T04:04:15.164Z,10.23
2024-02-07T04:05:20.046Z,14.07
2024-02-07T04:08:26.506Z,10.40
2024-02-07T04:10:29.924Z,9.70
2024-02-07T04:11:31.433Z,10.98
2024-02-07T04:12:33.035Z,9.75
2024-02-07T04:15:38.260Z,10.82
2024-02-07T04:17:41.622Z,9.97
2024-02-07T04:18:43.229Z,10.13
2024-02-07T04:24:58.761Z,9.75
2024-02-07T04:26:00.304Z,11.80
2024-02-07T04:27:01.923Z,10.43
2024-02-07T04:28:03.482Z,10.63
2024-02-07T04:29:05.575Z,10.93
2024-02-07T04:30:07.386Z,9.40
2024-02-07T04:32:10.727Z,10.23
2024-02-07T04:35:16.101Z,10.02
2024-02-07T04:36:17.708Z,10.95
2024-02-07T04:40:24.901Z,10.18
2024-02-07T04:41:26.429Z,10.43
2024-02-07T04:43:56.430Z,7.22
2024-02-07T04:44:57.951Z,8.05
2024-02-07T04:52:11.078Z,9.75
2024-02-07T04:56:27.127Z,8.15
2024-02-07T04:57:28.701Z,9.60
2024-02-07T04:58:30.465Z,9.05
2024-02-07T04:59:32.123Z,8.47
2024-02-07T05:00:33.633Z,8.95
2024-02-07T05:01:35.271Z,10.40
2024-02-07T05:02:36.915Z,10.27
2024-02-07T05:03:38.472Z,10.25
2024-02-07T05:04:40.039Z,9.60
2024-02-07T05:05:41.617Z,9.77
2024-02-07T05:08:46.607Z,8.77
2024-02-07T05:09:48.131Z,10.13
2024-02-07T05:10:49.689Z,9.98
2024-02-07T05:11:51.223Z,9.70
2024-02-07T05:12:52.771Z,8.48
2024-02-07T05:14:56.245Z,14.93
2024-02-07T05:16:59.538Z,16.38
2024-02-07T05:18:01.177Z,19.27
2024-02-07T05:19:02.792Z,16.67
2024-02-07T05:21:10.738Z,14.80
2024-02-07T05:22:12.496Z,12.73
2024-02-07T05:25:17.663Z,14.88
2024-02-07T05:28:23.665Z,12.73
2024-02-07T05:29:25.539Z,12.90
2024-02-07T05:30:27.085Z,11.70
2024-02-07T05:31:28.572Z,11.73
2024-02-07T05:32:30.268Z,11.98
2024-02-07T05:33:32.001Z,11.35
2024-02-07T05:34:33.705Z,10.48
2024-02-07T05:35:35.429Z,10.45
2024-02-07T05:37:38.832Z,8.63
2024-02-07T05:38:40.332Z,8.55
2024-02-07T05:39:41.940Z,9.32
2024-02-07T05:40:43.567Z,8.73
2024-02-07T05:41:45.257Z,9.07
2024-02-07T05:43:48.598Z,9.82
2024-02-07T05:44:50.296Z,9.20
2024-02-07T05:45:51.935Z,10.48
2024-02-07T05:46:53.587Z,11.40
2024-02-07T05:47:55.787Z,10.95
2024-02-07T05:48:57.371Z,13.82
2024-02-07T05:51:00.689Z,11.83
2024-02-07T05:52:03.198Z,14.20
2024-02-07T05:59:21.724Z,14.77
2024-02-07T06:00:23.311Z,13.95
2024-02-07T06:01:25.122Z,13.93
2024-02-07T06:03:28.574Z,13.48
2024-02-07T06:04:30.223Z,12.93
2024-02-07T06:05:31.911Z,13.85
2024-02-07T06:08:37.250Z,15.50
2024-02-07T06:10:43.616Z,14.00
2024-02-07T06:16:54.156Z,15.75
2024-02-07T06:17:55.786Z,14.68
2024-02-07T06:22:03.036Z,15.87
2024-02-07T06:23:04.674Z,15.85
2024-02-07T06:24:06.345Z,14.63
2024-02-07T06:26:10.080Z,15.65
2024-02-07T06:27:11.650Z,14.38
2024-02-07T06:28:13.168Z,15.70
2024-02-07T06:29:14.803Z,14.77
2024-02-07T06:31:19.299Z,21.83
2024-02-07T06:32:20.863Z,20.80
2024-02-07T06:33:22.419Z,19.13
2024-02-07T06:34:24.457Z,16.33
2024-02-07T06:35:26.040Z,13.73
2024-02-07T06:36:27.561Z,13.80
2024-02-07T06:39:33.424Z,17.00
2024-02-07T06:41:36.642Z,13.27
2024-02-07T06:43:39.989Z,12.20
2024-02-07T06:44:41.645Z,13.45
2024-02-07T06:45:43.175Z,14.32
2024-02-07T06:46:44.793Z,19.80
2024-02-07T06:47:46.929Z,17.45
2024-02-07T06:48:48.435Z,16.67
2024-02-07T06:50:51.794Z,20.02
2024-02-07T06:51:53.302Z,21.88
2024-02-07T06:52:55.034Z,27.33
2024-02-07T06:54:58.280Z,21.13
2024-02-07T06:56:00.502Z,18.10
2024-02-07T06:57:02.652Z,16.40
2024-02-07T06:58:04.358Z,16.27
2024-02-07T06:59:06.101Z,17.02
2024-02-07T07:00:07.902Z,14.75
2024-02-07T07:02:11.309Z,13.18
2024-02-07T07:04:14.797Z,14.77
2024-02-07T07:06:18.734Z,14.18
2024-02-07T07:07:20.311Z,14.30
2024-02-07T07:08:21.906Z,14.73
2024-02-07T07:09:23.517Z,16.63
2024-02-07T07:10:25.106Z,15.65
2024-02-07T07:12:28.441Z,14.02
2024-02-07T07:13:29.997Z,14.10
2024-02-07T07:14:31.511Z,15.68
2024-02-07T07:15:34.127Z,17.67
2024-02-07T07:16:35.981Z,20.90
2024-02-07T07:21:44.924Z,17.63
2024-02-07T07:22:56.137Z,17.92
2024-02-07T07:24:04.491Z,20.73
2024-02-07T07:25:06.387Z,17.45
2024-02-07T07:26:08.082Z,14.27
2024-02-07T07:27:09.567Z,11.45
2024-02-07T07:28:11.127Z,10.15
2024-02-07T07:31:16.606Z,9.25
2024-02-07T07:33:19.934Z,8.15
2024-02-07T07:34:22.272Z,8.93
2024-02-07T07:36:25.774Z,9.05
2024-02-07T07:38:29.974Z,8.85
2024-02-07T07:40:33.695Z,9.13
2024-02-07T07:41:35.267Z,9.20
2024-02-07T07:42:36.707Z,9.65
2024-02-07T07:43:38.311Z,9.18
2024-02-07T07:44:39.936Z,10.03
2024-02-07T07:46:43.460Z,9.35
2024-02-07T07:48:46.839Z,10.68
2024-02-07T07:49:48.424Z,10.93
2024-02-07T07:51:51.784Z,12.07
2024-02-07T07:52:53.451Z,12.23
2024-02-07T07:53:55.016Z,11.60
2024-02-07T07:54:56.583Z,12.93
2024-02-07T07:57:00.048Z,12.63
2024-02-07T07:59:03.475Z,11.40
2024-02-07T08:01:17.347Z,10.65
2024-02-07T08:02:19.434Z,9.93
2024-02-07T08:03:21.053Z,9.27
2024-02-07T08:04:22.733Z,9.13
2024-02-07T08:05:24.519Z,10.83
2024-02-07T08:06:26.065Z,10.18
2024-02-07T08:07:27.715Z,9.35
2024-02-07T08:09:31.123Z,8.73
2024-02-07T08:10:32.791Z,9.23
2024-02-07T08:11:34.354Z,8.98
2024-02-07T08:12:38.625Z,9.32
2024-02-07T08:13:41.993Z,8.93
2024-02-07T08:14:43.683Z,8.68
2024-02-07T08:15:45.460Z,8.63
2024-02-07T08:16:47.070Z,8.48
2024-02-07T08:17:48.649Z,8.50
2024-02-07T08:18:55.122Z,7.53
2024-02-07T08:19:57.498Z,8.05
2024-02-07T08:20:59.212Z,7.45
2024-02-07T08:22:00.806Z,8.88
2024-02-07T08:23:02.403Z,7.82
2024-02-07T08:24:04.126Z,9.27
2024-02-07T08:25:06.068Z,7.65
2024-02-07T08:26:09.991Z,7.60
2024-02-07T08:27:11.614Z,7.55
2024-02-07T08:28:13.241Z,7.15
2024-02-07T08:29:14.818Z,8.00
2024-02-07T08:30:16.465Z,9.65
2024-02-07T08:32:19.997Z,9.18
2024-02-07T08:33:21.802Z,9.07
2024-02-07T08:34:24.034Z,8.63
2024-02-07T08:35:25.977Z,9.15
2024-02-07T08:36:27.847Z,8.90
2024-02-07T09:21:34.576Z,2.45
2024-02-07T09:22:37.368Z,2.17
2024-02-07T09:23:40.509Z,2.33
2024-02-07T09:24:42.061Z,2.60
2024-02-07T09:25:43.630Z,2.30
2024-02-07T09:26:45.265Z,1.88
2024-02-07T09:27:46.849Z,2.63
2024-02-07T09:28:48.635Z,2.22
2024-02-07T09:29:56.370Z,2.33
2024-02-07T09:31:01.031Z,2.70
2024-02-07T09:32:03.105Z,2.63
2024-02-07T09:33:04.873Z,2.28
2024-02-07T09:34:06.432Z,2.20
2024-02-07T09:35:08.858Z,2.05
2024-02-07T09:36:11.389Z,2.65
2024-02-07T09:37:13.162Z,2.33
2024-02-07T09:38:16.401Z,2.10
2024-02-07T09:39:18.560Z,2.47
2024-02-07T09:40:20.167Z,3.83
2024-02-07T09:41:22.748Z,2.47
2024-02-07T09:42:25.182Z,2.15
2024-02-07T09:43:26.762Z,2.30
2024-02-07T09:44:29.135Z,3.27
2024-02-07T09:45:34.720Z,2.05
2024-02-07T09:46:43.026Z,1.98
2024-02-07T09:48:04.973Z,2.17
2024-02-07T09:49:06.859Z,1.80
2024-02-07T09:50:11.006Z,1.90
2024-02-07T09:51:12.819Z,2.42
2024-02-07T09:52:15.586Z,1.77
2024-02-07T09:53:19.238Z,2.70
2024-02-07T09:54:20.910Z,2.30
2024-02-07T09:55:22.944Z,1.93
2024-02-07T09:56:24.878Z,2.10
2024-02-07T09:57:27.026Z,2.15
2024-02-07T09:58:29.210Z,2.10
2024-02-07T10:42:09.026Z,2.40
2024-02-07T10:43:10.570Z,2.22
2024-02-07T10:44:12.048Z,2.70
2024-02-07T10:45:13.519Z,2.58
2024-02-07T10:46:16.032Z,3.20
2024-02-07T10:47:18.134Z,2.58
2024-02-07T10:48:19.803Z,2.70
2024-02-07T10:49:21.544Z,2.30
2024-02-07T10:50:23.550Z,2.13
2024-02-07T10:51:29.816Z,2.20
2024-02-07T10:52:31.696Z,1.80
2024-02-07T10:53:33.451Z,2.15
2024-02-07T10:54:35.031Z,2.10
2024-02-07T10:55:36.544Z,2.30
2024-02-07T10:56:38.618Z,1.92
2024-02-07T10:57:42.454Z,1.80
2024-02-07T10:58:44.382Z,2.13
2024-02-07T10:59:46.768Z,1.85
2024-02-07T11:00:49.814Z,1.60
2024-02-07T11:01:51.909Z,1.88
2024-02-07T11:02:53.502Z,2.30
2024-02-07T11:03:56.414Z,1.83
2024-02-07T11:04:58.246Z,2.30
2024-02-07T11:06:00.874Z,2.40
2024-02-07T11:07:02.726Z,2.22
2024-02-07T11:08:05.224Z,2.17
2024-02-07T11:09:07.180Z,2.03
2024-02-07T11:10:10.404Z,2.20
2024-02-07T11:11:13.233Z,1.88
2024-02-07T11:12:15.593Z,1.60
2024-02-07T11:13:17.321Z,2.13
2024-02-07T11:14:18.991Z,2.38
2024-02-07T11:15:20.568Z,2.30
2024-02-07T11:16:22.178Z,2.22
2024-02-07T11:17:23.750Z,2.85
2024-02-07T11:18:25.698Z,3.10
2024-02-07T11:19:27.443Z,2.33
2024-02-07T11:20:29.422Z,2.25
2024-02-07T11:21:34.237Z,2.15
2024-02-07T11:22:43.809Z,2.10
2024-02-07T11:23:46.677Z,2.07
2024-02-07T11:24:50.059Z,2.20
2024-02-07T12:08:37.193Z,12.82
2024-02-07T12:09:38.944Z,5.97
2024-02-07T12:10:40.907Z,3.00
2024-02-07T12:11:42.645Z,3.65
2024-02-07T12:12:44.408Z,3.65
2024-02-07T12:13:46.247Z,4.63
2024-02-07T12:14:48.123Z,4.63
2024-02-07T12:15:51.145Z,3.10
2024-02-07T12:16:53.836Z,3.03
2024-02-07T12:17:55.881Z,3.15
2024-02-07T12:18:57.877Z,4.30
2024-02-07T12:19:59.809Z,4.40
2024-02-07T12:21:02.283Z,3.33
2024-02-07T12:22:04.652Z,2.10
2024-02-07T12:23:06.597Z,2.80
2024-02-07T12:24:08.433Z,2.70
2024-02-07T12:25:15.515Z,2.47
2024-02-07T12:26:23.671Z,2.30
2024-02-07T12:27:26.535Z,2.53
2024-02-07T12:28:28.655Z,2.13
2024-02-07T12:29:30.327Z,2.63
2024-02-07T12:30:31.817Z,2.30
2024-02-07T12:31:33.688Z,2.20
2024-02-07T12:32:38.600Z,2.40
2024-02-07T12:33:41.349Z,2.58
2024-02-07T12:34:43.252Z,2.58
2024-02-07T12:35:55.508Z,2.50
2024-02-07T12:36:57.163Z,3.22
2024-02-07T12:37:59.201Z,2.90
2024-02-07T12:39:01.493Z,2.47
2024-02-07T12:40:03.236Z,3.55
2024-02-07T12:43:32.798Z,3.88
2024-02-07T12:44:38.785Z,7.13
2024-02-07T12:45:40.400Z,24.98
2024-02-07T12:46:41.990Z,11.75
2024-02-07T12:47:43.762Z,5.93
2024-02-07T12:48:45.671Z,4.25
2024-02-07T12:49:51.810Z,3.42
2024-02-07T12:50:56.361Z,3.05
2024-02-07T12:51:57.989Z,2.72
2024-02-07T12:52:59.732Z,2.40
2024-02-07T12:54:01.573Z,2.20
2024-02-07T12:55:03.130Z,2.67
2024-02-07T12:56:05.109Z,4.53
2024-02-07T12:57:06.977Z,2.97
2024-02-07T12:58:08.512Z,2.70
2024-02-07T12:59:10.161Z,2.70
2024-02-07T13:00:12.473Z,2.70
2024-02-07T13:01:21.008Z,3.45
2024-02-07T13:02:25.303Z,2.38
2024-02-07T13:03:26.897Z,2.43
2024-02-07T13:04:28.529Z,4.65
2024-02-07T13:05:30.253Z,5.22
2024-02-07T13:06:31.915Z,3.55
2024-02-07T13:07:33.478Z,3.72
2024-02-07T13:08:35.044Z,3.03
2024-02-07T13:09:36.985Z,3.38
2024-02-07T13:10:38.672Z,3.38
2024-02-07T13:11:40.323Z,5.03
2024-02-07T13:12:41.893Z,8.60
2024-02-07T13:13:43.585Z,5.40
2024-02-07T13:14:45.538Z,3.95
2024-02-07T13:15:47.078Z,3.40
2024-02-07T13:16:48.771Z,2.72
2024-02-07T13:17:50.598Z,3.45
2024-02-07T13:19:54.141Z,3.28
2024-02-07T13:20:55.830Z,2.63
2024-02-07T13:22:59.721Z,8.70
2024-02-07T13:25:12.960Z,5.15
2024-02-07T13:26:14.595Z,3.33
2024-02-07T13:27:16.195Z,3.88
2024-02-07T13:30:21.580Z,4.05
2024-02-07T13:31:23.168Z,2.95
2024-02-07T14:16:05.227Z,3.10
2024-02-07T14:17:07.048Z,3.33
2024-02-07T14:18:08.803Z,2.90
2024-02-07T14:19:10.441Z,3.10
2024-02-07T14:20:12.259Z,2.67
2024-02-07T14:21:13.995Z,2.60
2024-02-07T14:22:15.704Z,3.13
2024-02-07T14:23:17.717Z,3.03
2024-02-07T14:24:19.254Z,3.45
2024-02-07T14:25:20.914Z,3.00
2024-02-07T14:26:22.499Z,3.40
2024-02-07T14:27:24.043Z,2.78
2024-02-07T14:28:25.652Z,3.20
2024-02-07T14:29:27.267Z,3.72
2024-02-07T14:30:28.933Z,3.30
2024-02-07T14:31:30.684Z,3.72
2024-02-07T14:32:32.251Z,2.90
2024-02-07T14:33:33.912Z,3.08
2024-02-07T15:18:46.564Z,2.83
2024-02-07T15:19:48.223Z,2.60
2024-02-07T15:20:49.760Z,2.55
2024-02-07T15:21:51.257Z,2.47
2024-02-07T15:22:52.853Z,3.17
2024-02-07T15:23:54.515Z,2.50
2024-02-07T15:26:59.741Z,2.78
2024-02-07T15:28:01.343Z,2.60
2024-02-07T15:29:03.155Z,2.88
2024-02-07T15:30:05.205Z,2.50
2024-02-07T15:31:06.764Z,3.42
2024-02-07T15:32:08.394Z,2.90
2024-02-07T15:33:09.979Z,2.88
2024-02-07T15:34:11.626Z,2.78
2024-02-07T15:35:13.654Z,2.83
2024-02-07T15:36:15.468Z,3.10
2024-02-07T15:37:17.034Z,2.90
2024-02-07T15:38:18.680Z,3.38
2024-02-07T15:39:20.316Z,2.78
2024-02-07T15:40:21.885Z,2.57
2024-02-07T15:41:23.554Z,2.67
2024-02-07T15:42:25.145Z,3.15
2024-02-07T15:43:26.718Z,3.47
2024-02-07T15:44:28.307Z,3.63
2024-02-07T15:45:29.820Z,3.22
2024-02-07T15:46:31.501Z,5.68
2024-02-07T15:47:33.071Z,3.50
2024-02-07T15:48:34.818Z,2.88
2024-02-07T15:49:36.528Z,3.53
2024-02-07T15:50:38.292Z,2.97
2024-02-07T15:51:39.825Z,3.38
2024-02-07T15:52:41.845Z,3.20
2024-02-07T15:53:43.463Z,3.42
2024-02-07T15:54:45.012Z,3.10
2024-02-07T15:55:46.647Z,4.13
2024-02-07T15:56:48.240Z,3.95
2024-02-07T15:57:49.812Z,3.58
2024-02-07T15:58:51.332Z,3.17
2024-02-07T15:59:52.907Z,3.13
2024-02-07T16:00:54.530Z,3.40
2024-02-07T16:01:56.684Z,3.08
2024-02-07T16:02:58.697Z,3.20
2024-02-07T16:04:00.216Z,6.10
2024-02-07T16:05:01.992Z,5.68
2024-02-07T16:06:03.663Z,4.05
2024-02-07T16:07:05.307Z,3.70
2024-02-07T16:08:07.390Z,3.50
2024-02-07T16:09:09.099Z,3.70
2024-02-07T16:10:10.688Z,3.88
2024-02-07T16:11:12.260Z,5.93
2024-02-07T16:12:13.866Z,5.13
2024-02-07T16:13:15.408Z,4.70
2024-02-07T16:14:16.974Z,5.18
2024-02-07T16:15:18.452Z,5.40
2024-02-07T16:16:19.977Z,5.13
2024-02-07T16:17:21.454Z,5.03
2024-02-07T16:18:22.993Z,4.38
2024-02-07T16:19:24.670Z,4.57
2024-02-07T16:20:26.383Z,4.90
2024-02-07T16:21:27.881Z,4.50
2024-02-07T16:22:29.413Z,4.90
2024-02-07T16:23:30.950Z,6.47
2024-02-07T16:24:35.008Z,8.90
2024-02-07T16:25:36.858Z,10.98
2024-02-07T16:26:38.354Z,9.82
2024-02-07T16:27:39.888Z,10.85
2024-02-07T16:28:41.442Z,10.48
2024-02-07T16:29:43.036Z,8.93
2024-02-07T16:30:44.877Z,6.95
2024-02-07T16:31:46.689Z,7.43
2024-02-07T16:32:48.331Z,6.20
2024-02-07T16:33:50.315Z,6.20
2024-02-07T16:34:52.157Z,7.55
2024-02-07T16:35:54.014Z,6.55
2024-02-07T16:36:59.128Z,9.10
2024-02-07T16:38:01.695Z,9.38
2024-02-07T16:39:03.316Z,7.50
2024-02-07T17:24:23.575Z,8.07
2024-02-07T17:25:25.051Z,8.50
2024-02-07T17:26:26.652Z,8.88
2024-02-07T17:27:28.185Z,8.55
2024-02-07T17:28:29.772Z,7.85
2024-02-07T17:30:36.958Z,8.65
2024-02-07T17:31:43.006Z,9.63
2024-02-07T17:32:45.889Z,9.50
2024-02-07T17:34:49.652Z,10.93
2024-02-07T17:35:51.172Z,12.55
2024-02-07T17:36:53.922Z,12.77
2024-02-07T17:37:56.750Z,10.25
2024-02-07T17:38:58.246Z,7.28
2024-02-07T17:41:01.714Z,7.53
2024-02-07T17:42:03.295Z,7.80
2024-02-07T17:43:04.965Z,7.50
2024-02-07T17:44:06.592Z,7.63
2024-02-07T17:45:08.365Z,8.57
2024-02-07T17:46:09.946Z,11.18
2024-02-07T17:47:12.237Z,15.73
2024-02-07T17:48:13.919Z,18.40
2024-02-07T17:50:18.764Z,6.77
2024-02-07T17:51:20.341Z,6.30
2024-02-07T17:53:23.842Z,6.15
2024-02-07T17:54:25.458Z,24.42
2024-02-07T17:56:28.929Z,34.85
2024-02-07T17:58:32.254Z,33.33
2024-02-07T17:59:33.900Z,30.27
2024-02-07T18:00:35.461Z,23.27
2024-02-07T18:02:38.862Z,22.23
2024-02-07T18:03:40.449Z,14.48
2024-02-07T18:04:42.120Z,15.38
2024-02-07T18:08:49.329Z,10.35
2024-02-07T18:11:54.444Z,11.48
2024-02-07T18:12:56.057Z,12.02
2024-02-07T18:13:57.705Z,9.45
2024-02-07T18:17:02.991Z,10.63
2024-02-07T18:18:05.183Z,9.48
2024-02-07T18:20:08.958Z,8.00
2024-02-07T18:21:10.616Z,9.97
2024-02-07T19:06:07.819Z,8.73
2024-02-07T19:08:11.345Z,4.85
2024-02-07T19:12:18.647Z,4.35
2024-02-07T19:13:20.225Z,4.90
2024-02-07T19:14:21.866Z,5.40
2024-02-07T19:16:25.442Z,5.50
2024-02-07T19:17:27.111Z,5.68
2024-02-07T19:20:32.606Z,11.85
2024-02-07T19:21:34.169Z,12.50
2024-02-07T19:22:35.739Z,9.80
2024-02-07T19:23:37.291Z,9.43
2024-02-07T19:24:39.197Z,6.28
2024-02-07T19:25:40.790Z,5.93
2024-02-07T19:26:42.383Z,5.78
2024-02-07T19:27:44.076Z,5.05
2024-02-07T19:28:45.631Z,4.88
2024-02-07T19:29:47.179Z,6.10
2024-02-07T19:30:49.171Z,8.73
2024-02-07T19:32:52.579Z,8.15
2024-02-07T19:34:56.068Z,6.05
2024-02-07T19:35:57.711Z,6.63
2024-02-07T19:39:03.106Z,47.90
2024-02-07T19:42:09.079Z,30.27
2024-02-07T19:43:10.599Z,16.45
2024-02-07T19:48:19.342Z,5.88
2024-02-07T19:50:22.965Z,6.15
2024-02-07T19:51:24.601Z,5.50
2024-02-07T19:52:26.168Z,6.17
2024-02-07T20:04:47.723Z,6.78
2024-02-07T20:06:51.237Z,6.93
2024-02-07T20:07:52.838Z,7.22
2024-02-07T20:08:54.416Z,8.40
2024-02-07T20:09:55.953Z,7.38
2024-02-07T20:11:59.305Z,7.28
2024-02-07T20:14:02.764Z,8.43
2024-02-07T20:17:08.476Z,7.28
2024-02-07T20:21:16.142Z,7.07
2024-02-07T20:22:17.705Z,7.05
2024-02-07T20:23:24.074Z,7.97
2024-02-07T20:24:26.983Z,13.15
2024-02-07T20:25:29.030Z,13.02
2024-02-07T20:27:32.392Z,9.40
2024-02-07T20:28:36.976Z,7.40
2024-02-07T20:29:38.593Z,7.43
2024-02-07T20:30:40.148Z,7.60
2024-02-07T20:31:41.772Z,7.10
2024-02-07T20:32:43.402Z,7.38
2024-02-07T20:33:44.974Z,6.77
2024-02-07T20:34:46.552Z,7.80
2024-02-07T20:35:48.140Z,6.93
2024-02-07T20:37:51.450Z,7.50
2024-02-07T20:39:54.716Z,6.93
2024-02-07T20:41:58.315Z,7.50
2024-02-07T20:42:59.885Z,6.43
2024-02-07T20:44:01.396Z,6.67
2024-02-07T20:47:06.676Z,7.88
2024-02-07T20:48:08.517Z,7.60
2024-02-07T20:51:13.818Z,8.18
2024-02-07T20:52:15.435Z,8.43
2024-02-07T20:53:17.041Z,8.57
2024-02-07T20:55:20.564Z,12.73
2024-02-07T20:57:24.050Z,14.50
2024-02-07T20:58:25.598Z,9.55
2024-02-07T21:00:32.082Z,6.72
2024-02-07T21:01:35.237Z,6.88
2024-02-07T21:47:14.562Z,5.68
2024-02-07T21:48:16.185Z,5.88
2024-02-07T21:50:19.609Z,8.27
2024-02-07T21:51:21.268Z,9.15
2024-02-07T21:53:24.740Z,7.15
2024-02-07T22:37:54.495Z,5.63
2024-02-07T22:38:56.029Z,5.68
2024-02-07T22:39:57.528Z,6.43
2024-02-07T22:42:00.926Z,12.90
2024-02-07T22:43:02.442Z,16.38
2024-02-07T22:44:04.076Z,16.50
2024-02-07T22:45:06.527Z,13.57
2024-02-07T22:46:09.032Z,13.63
2024-02-07T22:47:10.837Z,15.63
2024-02-07T22:48:12.525Z,14.45
2024-02-07T22:49:14.147Z,18.63
2024-02-07T23:34:56.793Z,5.35
2024-02-07T23:37:00.056Z,5.53
2024-02-07T23:38:01.855Z,6.38
2024-02-07T23:41:07.829Z,6.25
2024-02-07T23:42:09.414Z,6.25
2024-02-07T23:43:11.013Z,14.73
2024-02-07T23:45:14.657Z,10.90
2024-02-07T23:46:16.240Z,8.00
2024-02-07T23:48:19.694Z,7.72
2024-02-07T23:49:21.380Z,7.03
2024-02-07T23:50:23.027Z,7.68
2024-02-07T23:51:24.737Z,7.10
2024-02-07T23:53:28.187Z,7.22
2024-02-07T23:54:29.764Z,6.93
2024-02-07T23:56:33.224Z,7.00
2024-02-07T23:57:34.723Z,6.23
2024-02-07T23:58:36.223Z,6.53
2024-02-07T23:59:37.761Z,6.80
